createdAt,value
2023-06-17T00:00:41.361Z,19.34
2023-06-17T00:02:45.607Z,19.24
2023-06-17T00:04:49.410Z,19.23
2023-06-17T00:06:52.867Z,18.96
2023-06-17T00:09:00.674Z,18.81
2023-06-17T00:11:05.190Z,18.79
2023-06-17T00:13:10.333Z,19.02
2023-06-17T00:15:14.589Z,18.93
2023-06-17T00:17:21.509Z,18.87
2023-06-17T00:19:25.888Z,18.95
2023-06-17T00:21:28.932Z,18.90
2023-06-17T00:23:32.272Z,18.91
2023-06-17T00:25:35.301Z,18.90
2023-06-17T00:27:38.946Z,18.62
2023-06-17T00:29:42.263Z,18.50
2023-06-17T00:31:45.558Z,18.52
2023-06-17T00:33:50.314Z,18.60
2023-06-17T00:35:55.754Z,18.43
2023-06-17T00:38:00.733Z,18.54
2023-06-17T00:40:08.966Z,18.55
2023-06-17T00:42:13.318Z,18.45
2023-06-17T00:44:17.505Z,18.38
2023-06-17T00:46:31.122Z,18.36
2023-06-17T00:48:34.785Z,18.32
2023-06-17T00:50:39.937Z,18.26
2023-06-17T00:52:45.825Z,18.22
2023-06-17T00:54:49.248Z,18.19
2023-06-17T00:56:54.355Z,18.14
2023-06-17T00:58:58.874Z,18.16
2023-06-17T01:01:02.171Z,18.00
2023-06-17T01:03:06.436Z,18.11
2023-06-17T01:05:12.730Z,18.13
2023-06-17T01:07:24.528Z,18.10
2023-06-17T01:09:31.688Z,18.11
2023-06-17T01:11:35.897Z,18.06
2023-06-17T01:13:39.269Z,17.93
2023-06-17T01:15:43.445Z,17.72
2023-06-17T01:17:47.742Z,17.56
2023-06-17T01:19:51.629Z,17.55
2023-06-17T01:21:55.142Z,17.79
2023-06-17T01:24:05.054Z,17.78
2023-06-17T01:26:09.850Z,17.77
2023-06-17T01:28:17.310Z,17.75
2023-06-17T01:30:21.349Z,17.75
2023-06-17T01:32:24.593Z,17.52
2023-06-17T01:34:32.461Z,17.68
2023-06-17T01:36:37.704Z,17.73
2023-06-17T01:38:44.303Z,17.76
2023-06-17T01:40:47.709Z,17.73
2023-06-17T01:42:54.183Z,17.72
2023-06-17T01:44:57.911Z,17.56
2023-06-17T01:47:01.202Z,17.31
2023-06-17T01:49:04.268Z,17.10
2023-06-17T01:51:07.945Z,17.17
2023-06-17T01:53:10.976Z,17.00
2023-06-17T01:55:14.614Z,16.98
2023-06-17T01:57:17.652Z,17.11
2023-06-17T01:59:22.238Z,17.27
2023-06-17T02:01:25.531Z,17.29
2023-06-17T02:03:29.110Z,17.27
2023-06-17T02:05:32.219Z,17.26
2023-06-17T02:07:35.723Z,17.22
2023-06-17T02:09:39.776Z,17.19
2023-06-17T02:11:44.756Z,17.21
2023-06-17T02:13:47.707Z,17.19
2023-06-17T02:15:52.186Z,16.93
2023-06-17T02:17:55.318Z,16.45
2023-06-17T02:19:58.540Z,16.70
2023-06-17T02:22:01.586Z,16.70
2023-06-17T02:24:05.224Z,16.81
2023-06-17T02:26:08.292Z,16.84
2023-06-17T02:28:12.364Z,16.61
2023-06-17T02:30:15.960Z,16.14
2023-06-17T02:32:21.249Z,16.40
2023-06-17T02:34:24.451Z,16.40
2023-06-17T02:36:28.296Z,16.63
2023-06-17T02:38:31.328Z,16.69
2023-06-17T02:40:36.061Z,16.44
2023-06-17T02:42:39.225Z,16.23
2023-06-17T02:44:43.383Z,16.50
2023-06-17T02:46:46.475Z,16.61
2023-06-17T02:48:51.587Z,16.43
2023-06-17T02:50:56.156Z,16.56
2023-06-17T02:52:59.282Z,16.59
2023-06-17T02:55:07.198Z,16.58
2023-06-17T02:57:10.281Z,16.55
2023-06-17T02:59:14.926Z,16.49
2023-06-17T03:01:18.450Z,16.38
2023-06-17T03:03:24.354Z,16.40
2023-06-17T03:05:30.870Z,16.20
2023-06-17T03:07:37.673Z,15.84
2023-06-17T03:09:40.862Z,15.67
2023-06-17T03:11:43.937Z,15.61
2023-06-17T03:13:47.072Z,15.87
2023-06-17T03:16:02.453Z,15.82
2023-06-17T03:18:07.766Z,16.05
2023-06-17T03:20:11.968Z,16.08
2023-06-17T03:22:17.676Z,16.06
2023-06-17T03:24:25.008Z,15.91
2023-06-17T03:26:28.933Z,15.78
2023-06-17T03:28:33.660Z,15.58
2023-06-17T03:30:37.533Z,15.66
2023-06-17T03:32:41.186Z,15.51
2023-06-17T03:34:45.092Z,15.69
2023-06-17T03:36:50.622Z,15.88
2023-06-17T03:38:55.155Z,15.81
2023-06-17T03:40:58.743Z,15.92
2023-06-17T03:43:02.135Z,16.02
2023-06-17T03:45:06.535Z,16.03
2023-06-17T03:47:10.220Z,16.08
2023-06-17T03:49:13.574Z,16.11
2023-06-17T03:51:18.075Z,16.15
2023-06-17T03:53:21.261Z,16.18
2023-06-17T03:55:26.244Z,16.22
2023-06-17T03:57:31.195Z,16.21
2023-06-17T03:59:34.510Z,16.14
2023-06-17T04:01:38.233Z,16.12
2023-06-17T04:03:45.603Z,16.08
2023-06-17T04:05:51.306Z,16.08
2023-06-17T04:07:54.948Z,16.05
2023-06-17T04:10:06.432Z,16.09
2023-06-17T04:12:14.484Z,16.05
2023-06-17T04:14:19.018Z,16.02
2023-06-17T04:16:26.984Z,16.03
2023-06-17T04:18:30.555Z,16.02
2023-06-17T04:20:38.962Z,16.07
2023-06-17T04:22:47.234Z,16.01
2023-06-17T04:24:57.291Z,16.06
2023-06-17T04:27:04.188Z,16.15
2023-06-17T04:29:09.960Z,16.14
2023-06-17T04:31:15.124Z,16.21
2023-06-17T04:33:19.256Z,16.26
2023-06-17T04:35:22.936Z,16.17
2023-06-17T04:37:26.290Z,16.42
2023-06-17T04:39:31.232Z,16.50
2023-06-17T04:41:34.412Z,16.50
2023-06-17T04:43:38.681Z,16.52
2023-06-17T04:45:48.583Z,16.60
2023-06-17T04:47:51.739Z,16.64
2023-06-17T04:49:55.060Z,16.74
2023-06-17T04:51:58.742Z,16.97
2023-06-17T04:54:01.939Z,17.31
2023-06-17T04:56:07.833Z,17.82
2023-06-17T04:58:11.633Z,18.32
2023-06-17T05:00:22.968Z,18.65
2023-06-17T05:02:28.800Z,19.15
2023-06-17T05:04:32.205Z,18.89
2023-06-17T05:06:38.286Z,19.64
2023-06-17T05:08:41.458Z,19.91
2023-06-17T05:10:45.210Z,20.20
2023-06-17T05:12:48.112Z,20.57
2023-06-17T05:14:51.322Z,20.72
2023-06-17T05:16:55.363Z,20.63
2023-06-17T05:18:59.914Z,20.39
2023-06-17T05:21:05.273Z,20.37
2023-06-17T05:23:09.332Z,20.04
2023-06-17T05:25:12.810Z,20.71
2023-06-17T05:27:16.288Z,21.19
2023-06-17T05:29:20.349Z,21.48
2023-06-17T05:31:24.770Z,21.92
2023-06-17T05:33:30.454Z,21.81
2023-06-17T05:35:36.381Z,22.06
2023-06-17T05:37:39.916Z,21.33
2023-06-17T05:39:42.867Z,22.29
2023-06-17T05:41:46.520Z,22.29
2023-06-17T05:43:51.550Z,22.19
2023-06-17T05:45:58.241Z,23.02
2023-06-17T05:48:02.262Z,23.12
2023-06-17T05:50:10.777Z,23.06
2023-06-17T05:52:17.702Z,23.47
2023-06-17T05:54:21.943Z,23.72
2023-06-17T05:56:24.923Z,23.73
2023-06-17T05:58:28.812Z,24.59
2023-06-17T06:00:38.790Z,24.49
2023-06-17T06:02:44.508Z,24.33
2023-06-17T06:04:51.883Z,25.26
2023-06-17T06:06:55.345Z,25.66
2023-06-17T06:09:01.529Z,25.78
2023-06-17T06:11:05.262Z,25.72
2023-06-17T06:13:10.005Z,26.07
2023-06-17T06:15:13.810Z,25.57
2023-06-17T06:17:18.346Z,26.37
2023-06-17T06:19:22.260Z,25.80
2023-06-17T06:21:25.870Z,26.15
2023-06-17T06:23:29.446Z,27.01
2023-06-17T06:25:36.846Z,27.84
2023-06-17T06:27:40.284Z,28.01
2023-06-17T06:29:44.674Z,27.28
2023-06-17T06:31:48.013Z,28.08
2023-06-17T06:33:54.573Z,28.41
2023-06-17T06:35:58.555Z,28.00
2023-06-17T06:38:03.477Z,28.76
2023-06-17T06:40:08.824Z,28.31
2023-06-17T06:42:15.889Z,29.16
2023-06-17T06:44:38.579Z,29.61
2023-06-17T06:46:42.269Z,28.47
2023-06-17T06:48:45.560Z,29.14
2023-06-17T06:50:49.584Z,30.26
2023-06-17T06:52:55.244Z,30.37
2023-06-17T06:55:01.709Z,28.81
2023-06-17T06:57:05.397Z,29.52
2023-06-17T06:59:11.330Z,29.83
2023-06-17T07:01:14.700Z,30.83
2023-06-17T07:03:18.401Z,31.57
2023-06-17T07:05:23.093Z,30.39
2023-06-17T07:07:30.709Z,29.65
2023-06-17T07:09:34.288Z,31.23
2023-06-17T07:11:38.098Z,31.33
2023-06-17T07:13:41.332Z,30.25
2023-06-17T07:15:46.495Z,30.94
2023-06-17T07:17:50.892Z,31.15
2023-06-17T07:19:56.300Z,30.27
2023-06-17T07:21:59.419Z,30.90
2023-06-17T07:24:03.906Z,31.11
2023-06-17T07:26:08.774Z,30.67
2023-06-17T07:28:12.591Z,31.01
2023-06-17T07:30:16.537Z,31.04
2023-06-17T07:32:21.706Z,31.63
2023-06-17T07:34:26.047Z,32.52
2023-06-17T07:36:29.594Z,33.51
2023-06-17T07:38:34.531Z,34.05
2023-06-17T07:40:38.523Z,34.52
2023-06-17T07:42:42.813Z,33.24
2023-06-17T07:44:47.677Z,33.54
2023-06-17T07:46:50.800Z,34.50
2023-06-17T07:48:55.171Z,34.85
2023-06-17T07:50:58.153Z,34.95
2023-06-17T07:53:01.489Z,35.62
2023-06-17T07:55:08.197Z,35.83
2023-06-17T07:57:11.690Z,35.69
2023-06-17T07:59:14.738Z,34.37
2023-06-17T08:01:17.844Z,35.04
2023-06-17T08:03:22.086Z,32.65
2023-06-17T08:05:26.539Z,33.70
2023-06-17T08:07:29.450Z,33.04
2023-06-17T08:09:32.628Z,33.62
2023-06-17T08:11:35.514Z,34.46
2023-06-17T08:13:38.497Z,34.29
2023-06-17T08:15:41.398Z,34.88
2023-06-17T08:17:44.394Z,35.53
2023-06-17T08:19:47.423Z,35.53
2023-06-17T08:21:51.769Z,36.38
2023-06-17T08:23:54.774Z,36.41
2023-06-17T08:25:58.001Z,36.72
2023-06-17T08:28:01.077Z,36.68
2023-06-17T08:30:04.878Z,36.34
2023-06-17T08:32:08.446Z,36.72
2023-06-17T08:34:11.503Z,37.06
2023-06-17T08:36:14.503Z,36.77
2023-06-17T08:38:19.076Z,37.34
2023-06-17T08:40:24.353Z,37.36
2023-06-17T08:42:29.062Z,37.56
2023-06-17T08:44:34.554Z,36.26
2023-06-17T08:46:38.376Z,36.74
2023-06-17T08:48:42.175Z,37.34
2023-06-17T08:50:46.168Z,37.73
2023-06-17T08:52:49.824Z,38.08
2023-06-17T08:54:56.286Z,36.57
2023-06-17T08:56:59.234Z,37.35
2023-06-17T08:59:02.256Z,36.61
2023-06-17T09:01:06.046Z,37.11
2023-06-17T09:03:10.568Z,36.68
2023-06-17T09:05:13.954Z,37.18
2023-06-17T09:07:16.975Z,36.53
2023-06-17T09:09:20.117Z,36.81
2023-06-17T09:11:26.171Z,37.09
2023-06-17T09:13:29.304Z,36.91
2023-06-17T09:15:32.337Z,36.90
2023-06-17T09:17:35.537Z,36.92
2023-06-17T09:19:41.749Z,36.92
2023-06-17T09:21:48.236Z,36.36
2023-06-17T09:23:55.968Z,36.43
2023-06-17T09:26:05.126Z,36.32
2023-06-17T09:28:16.097Z,36.18
2023-06-17T09:30:24.383Z,36.36
2023-06-17T09:32:39.487Z,36.15
2023-06-17T09:34:50.034Z,36.29
2023-06-17T09:36:55.778Z,36.16
2023-06-17T09:38:58.865Z,36.03
2023-06-17T09:41:02.092Z,36.07
2023-06-17T09:43:25.951Z,35.94
2023-06-17T09:45:31.009Z,35.87
2023-06-17T09:47:37.701Z,35.73
2023-06-17T09:49:44.903Z,35.75
2023-06-17T09:51:48.287Z,35.75
2023-06-17T09:53:52.608Z,35.56
2023-06-17T09:55:58.159Z,35.75
2023-06-17T09:58:02.988Z,35.73
2023-06-17T10:00:11.380Z,35.30
2023-06-17T10:02:16.350Z,35.25
2023-06-17T10:04:19.353Z,35.59
2023-06-17T10:06:22.500Z,35.80
2023-06-17T10:08:26.587Z,35.84
2023-06-17T10:10:29.868Z,35.78
2023-06-17T10:12:33.900Z,35.87
2023-06-17T10:14:37.518Z,35.37
2023-06-17T10:21:02.530Z,35.10
2023-06-17T10:23:06.151Z,34.96
2023-06-17T10:25:11.410Z,34.69
2023-06-17T10:27:14.569Z,34.99
2023-06-17T10:29:17.744Z,35.04
2023-06-17T10:31:27.557Z,34.76
2023-06-17T10:33:31.548Z,35.01
2023-06-17T10:35:41.448Z,35.06
2023-06-17T10:37:48.353Z,34.99
2023-06-17T10:39:54.056Z,34.82
2023-06-17T10:41:59.118Z,35.10
2023-06-17T10:44:03.474Z,34.90
2023-06-17T10:46:06.972Z,34.64
2023-06-17T10:48:16.625Z,34.52
2023-06-17T10:50:23.577Z,34.19
2023-06-17T10:52:32.142Z,34.18
2023-06-17T10:54:45.988Z,34.41
2023-06-17T10:56:49.125Z,34.68
2023-06-17T10:58:52.980Z,32.94
2023-06-17T11:01:00.538Z,33.06
2023-06-17T11:03:03.970Z,33.64
2023-06-17T11:05:08.053Z,33.97
2023-06-17T11:07:11.537Z,34.15
2023-06-17T11:09:14.964Z,34.30
2023-06-17T11:11:20.926Z,33.60
2023-06-17T11:13:24.936Z,33.95
2023-06-17T11:15:30.159Z,33.91
2023-06-17T11:17:33.189Z,34.02
2023-06-17T11:19:37.740Z,34.25
2023-06-17T11:21:40.705Z,34.29
2023-06-17T11:23:45.773Z,34.47
2023-06-17T11:25:50.603Z,34.54
2023-06-17T11:27:57.109Z,34.31
2023-06-17T11:30:00.193Z,34.44
2023-06-17T11:32:03.848Z,34.64
2023-06-17T11:34:09.796Z,34.36
2023-06-17T11:36:15.187Z,34.50
2023-06-17T11:38:19.560Z,34.79
2023-06-17T11:40:24.099Z,34.75
2023-06-17T11:42:27.752Z,34.63
2023-06-17T11:44:34.039Z,34.54
2023-06-17T11:46:38.615Z,34.69
2023-06-17T11:48:42.186Z,34.76
2023-06-17T11:50:45.686Z,32.99
2023-06-17T11:52:57.183Z,34.02
2023-06-17T11:55:00.637Z,34.39
2023-06-17T11:57:04.172Z,34.45
2023-06-17T11:59:08.051Z,34.46
2023-06-17T12:01:13.960Z,34.56
2023-06-17T12:03:17.147Z,34.70
2023-06-17T12:05:20.861Z,34.70
2023-06-17T12:07:24.957Z,34.94
2023-06-17T12:09:29.173Z,35.02
2023-06-17T12:11:33.874Z,34.98
2023-06-17T12:13:42.271Z,34.84
2023-06-17T12:15:48.339Z,34.94
2023-06-17T12:17:52.835Z,34.90
2023-06-17T12:20:08.513Z,34.97
2023-06-17T12:22:13.907Z,34.80
2023-06-17T12:24:18.457Z,35.09
2023-06-17T12:26:26.060Z,35.08
2023-06-17T12:28:31.962Z,34.61
2023-06-17T12:30:36.350Z,33.86
2023-06-17T12:32:40.931Z,34.36
2023-06-17T12:34:46.470Z,34.04
2023-06-17T12:36:49.866Z,33.07
2023-06-17T12:38:54.400Z,33.91
2023-06-17T12:40:58.311Z,34.18
2023-06-17T12:43:01.887Z,34.38
2023-06-17T12:45:07.530Z,34.43
2023-06-17T12:47:10.556Z,34.75
2023-06-17T12:49:15.491Z,34.76
2023-06-17T12:51:20.002Z,34.86
2023-06-17T12:53:23.193Z,34.82
2023-06-17T12:55:26.294Z,34.96
2023-06-17T12:57:31.359Z,34.96
2023-06-17T12:59:35.101Z,34.98
2023-06-17T13:01:38.315Z,35.04
2023-06-17T13:03:42.692Z,35.14
2023-06-17T13:05:46.952Z,35.34
2023-06-17T13:07:51.541Z,34.80
2023-06-17T13:09:54.931Z,34.81
2023-06-17T13:11:58.073Z,34.96
2023-06-17T13:14:03.614Z,34.94
2023-06-17T13:16:07.311Z,34.98
2023-06-17T13:18:14.013Z,34.77
2023-06-17T13:20:17.378Z,34.73
2023-06-17T13:22:21.130Z,34.87
2023-06-17T13:24:25.805Z,34.76
2023-06-17T13:26:31.835Z,33.95
2023-06-17T13:28:36.357Z,33.96
2023-06-17T13:30:39.297Z,33.69
2023-06-17T13:32:42.734Z,33.98
2023-06-17T13:34:46.725Z,34.14
2023-06-17T13:36:49.979Z,34.19
2023-06-17T13:38:53.319Z,34.38
2023-06-17T13:40:58.034Z,33.20
2023-06-17T13:43:01.674Z,33.65
2023-06-17T13:45:05.716Z,33.49
2023-06-17T13:47:08.963Z,33.78
2023-06-17T13:49:12.014Z,33.93
2023-06-17T13:51:15.629Z,34.06
2023-06-17T13:53:18.712Z,33.97
2023-06-17T13:55:21.682Z,33.74
2023-06-17T13:57:26.583Z,33.61
2023-06-17T13:59:30.510Z,33.36
2023-06-17T14:01:34.009Z,33.15
2023-06-17T14:03:37.509Z,33.41
2023-06-17T14:05:40.909Z,33.19
2023-06-17T14:07:44.349Z,33.17
2023-06-17T14:09:48.218Z,33.33
2023-06-17T14:11:52.701Z,33.02
2023-06-17T14:13:57.511Z,32.86
2023-06-17T14:16:02.053Z,32.91
2023-06-17T14:18:06.058Z,32.83
2023-06-17T14:20:10.739Z,32.99
2023-06-17T14:22:14.596Z,32.78
2023-06-17T14:24:23.246Z,32.57
2023-06-17T14:26:28.196Z,32.50
2023-06-17T14:28:36.517Z,32.08
2023-06-17T14:30:42.713Z,32.01
2023-06-17T14:32:47.817Z,32.17
2023-06-17T14:34:51.547Z,31.97
2023-06-17T14:36:55.195Z,31.76
2023-06-17T14:39:01.901Z,31.52
2023-06-17T14:41:05.114Z,31.65
2023-06-17T14:43:08.620Z,31.81
2023-06-17T14:45:13.209Z,31.92
2023-06-17T14:47:21.458Z,31.93
2023-06-17T14:49:25.220Z,31.84
2023-06-17T14:51:28.936Z,31.99
2023-06-17T14:53:33.509Z,32.06
2023-06-17T14:55:37.686Z,32.10
2023-06-17T14:57:41.294Z,31.96
2023-06-17T14:59:46.060Z,31.84
2023-06-17T15:01:49.389Z,31.92
2023-06-17T15:03:54.256Z,31.98
2023-06-17T15:05:57.595Z,31.97
2023-06-17T15:08:00.922Z,31.98
2023-06-17T15:10:04.642Z,31.73
2023-06-17T15:12:12.790Z,31.63
2023-06-17T15:14:16.221Z,31.51
2023-06-17T15:16:20.190Z,31.61
2023-06-17T15:18:24.001Z,31.58
2023-06-17T15:20:29.028Z,31.46
2023-06-17T15:22:33.475Z,31.54
2023-06-17T15:24:36.928Z,31.42
2023-06-17T15:26:41.546Z,31.16
2023-06-17T15:28:44.594Z,30.44
2023-06-17T15:30:47.758Z,30.37
2023-06-17T15:32:53.094Z,30.60
2023-06-17T15:34:56.292Z,30.13
2023-06-17T15:37:00.671Z,30.35
2023-06-17T15:39:17.127Z,30.35
2023-06-17T15:41:20.051Z,30.27
2023-06-17T15:43:22.956Z,30.18
2023-06-17T15:45:25.920Z,30.15
2023-06-17T15:47:28.913Z,30.05
2023-06-17T15:49:31.974Z,29.93
2023-06-17T15:51:35.079Z,29.91
2023-06-17T15:53:39.420Z,29.85
2023-06-17T15:55:42.505Z,29.77
2023-06-17T15:57:45.383Z,29.72
2023-06-17T15:59:48.332Z,29.62
2023-06-17T16:01:51.346Z,29.73
2023-06-17T16:03:54.386Z,29.68
2023-06-17T16:05:57.661Z,29.82
2023-06-17T16:08:00.866Z,29.90
2023-06-17T16:10:05.348Z,30.06
2023-06-17T16:12:09.426Z,30.28
2023-06-17T16:14:12.525Z,30.31
2023-06-17T16:16:15.715Z,30.43
2023-06-17T16:18:18.810Z,30.58
2023-06-17T16:20:22.271Z,30.60
2023-06-17T16:22:25.920Z,30.39
2023-06-17T16:24:29.127Z,30.44
2023-06-17T16:26:33.791Z,30.77
2023-06-17T16:28:36.778Z,30.87
2023-06-17T16:30:42.476Z,30.96
2023-06-17T16:32:45.592Z,30.83
2023-06-17T16:34:48.901Z,30.97
2023-06-17T16:36:51.920Z,30.05
2023-06-17T16:38:55.202Z,30.20
2023-06-17T16:40:58.301Z,30.17
2023-06-17T16:43:02.967Z,30.51
2023-06-17T16:45:08.309Z,30.66
2023-06-17T16:47:11.490Z,30.65
2023-06-17T16:49:14.652Z,30.70
2023-06-17T16:51:18.348Z,30.72
2023-06-17T16:53:21.937Z,30.66
2023-06-17T16:55:24.971Z,30.68
2023-06-17T16:57:28.245Z,30.72
2023-06-17T16:59:33.154Z,30.75
2023-06-17T17:01:36.217Z,30.72
2023-06-17T17:03:39.748Z,30.68
2023-06-17T17:05:43.065Z,30.56
2023-06-17T17:07:46.161Z,30.61
2023-06-17T17:09:49.361Z,30.59
2023-06-17T17:11:52.511Z,30.59
2023-06-17T17:13:55.546Z,30.61
2023-06-17T17:16:00.029Z,30.57
2023-06-17T17:18:05.098Z,30.57
2023-06-17T17:20:09.836Z,30.52
2023-06-17T17:22:13.126Z,30.48
2023-06-17T17:24:16.485Z,30.38
2023-06-17T17:26:19.762Z,30.39
2023-06-17T17:28:22.743Z,30.36
2023-06-17T17:30:26.197Z,30.32
2023-06-17T17:32:30.845Z,30.24
2023-06-17T17:34:35.138Z,30.24
2023-06-17T17:36:38.410Z,30.25
2023-06-17T17:38:46.123Z,30.23
2023-06-17T17:40:50.770Z,30.26
2023-06-17T17:42:54.209Z,30.24
2023-06-17T17:44:58.204Z,30.17
2023-06-17T17:47:01.412Z,30.12
2023-06-17T17:49:06.141Z,30.13
2023-06-17T17:51:09.481Z,30.07
2023-06-17T17:53:13.188Z,30.06
2023-06-17T17:55:18.234Z,30.08
2023-06-17T17:57:22.265Z,30.04
2023-06-17T17:59:25.568Z,29.89
2023-06-17T18:01:29.148Z,29.85
2023-06-17T18:03:32.766Z,29.92
2023-06-17T18:05:37.479Z,29.89
2023-06-17T18:07:40.629Z,29.77
2023-06-17T18:09:44.153Z,29.75
2023-06-17T18:11:47.261Z,29.68
2023-06-17T18:13:51.997Z,29.70
2023-06-17T18:15:57.965Z,29.70
2023-06-17T18:18:03.806Z,29.68
2023-06-17T18:20:10.749Z,29.65
2023-06-17T18:22:16.838Z,29.52
2023-06-17T18:24:20.733Z,29.32
2023-06-17T18:26:24.365Z,29.31
2023-06-17T18:28:27.727Z,29.24
2023-06-17T18:30:32.048Z,29.18
2023-06-17T18:32:36.707Z,29.15
2023-06-17T18:34:39.985Z,29.08
2023-06-17T18:36:44.688Z,29.07
2023-06-17T18:38:49.324Z,29.00
2023-06-17T18:40:54.684Z,28.96
2023-06-17T18:42:57.926Z,28.89
2023-06-17T18:45:01.444Z,28.86
2023-06-17T18:47:05.882Z,28.80
2023-06-17T18:49:11.285Z,28.74
2023-06-17T18:51:16.795Z,28.67
2023-06-17T18:53:21.485Z,28.64
2023-06-17T18:55:28.550Z,28.59
2023-06-17T18:57:34.414Z,28.50
2023-06-17T18:59:37.974Z,28.43
2023-06-17T19:01:41.862Z,28.36
2023-06-17T19:03:45.905Z,28.26
2023-06-17T19:05:51.689Z,28.21
2023-06-17T19:07:55.141Z,28.19
2023-06-17T19:09:58.762Z,28.03
2023-06-17T19:12:04.620Z,28.06
2023-06-17T19:14:08.286Z,28.02
2023-06-17T19:16:11.806Z,27.89
2023-06-17T19:18:15.413Z,27.86
2023-06-17T19:20:18.536Z,27.78
2023-06-17T19:22:21.618Z,27.68
2023-06-17T19:24:24.828Z,27.60
2023-06-17T19:26:30.353Z,27.48
2023-06-17T19:28:35.108Z,27.32
2023-06-17T19:30:38.551Z,27.25
2023-06-17T19:32:41.840Z,27.19
2023-06-17T19:34:47.445Z,27.11
2023-06-17T19:36:51.360Z,26.76
2023-06-17T19:38:54.867Z,26.70
2023-06-17T19:40:58.779Z,26.74
2023-06-17T19:43:02.107Z,26.73
2023-06-17T19:45:10.382Z,26.64
2023-06-17T19:47:15.998Z,26.43
2023-06-17T19:49:19.064Z,26.30
2023-06-17T19:51:22.630Z,26.06
2023-06-17T19:53:25.865Z,26.05
2023-06-17T19:55:28.814Z,26.18
2023-06-17T19:57:33.070Z,26.15
2023-06-17T19:59:36.375Z,25.99
2023-06-17T20:01:40.810Z,25.93
2023-06-17T20:03:43.763Z,25.87
2023-06-17T20:05:47.430Z,25.68
2023-06-17T20:07:52.293Z,25.54
2023-06-17T20:09:55.827Z,25.35
2023-06-17T20:11:58.765Z,25.28
2023-06-17T20:14:02.278Z,25.16
2023-06-17T20:16:06.062Z,25.15
2023-06-17T20:18:11.131Z,25.14
2023-06-17T20:20:17.997Z,25.05
2023-06-17T20:22:20.932Z,24.93
2023-06-17T20:24:23.836Z,25.01
2023-06-17T20:26:27.112Z,24.82
2023-06-17T20:28:31.707Z,24.58
2023-06-17T20:30:34.622Z,24.70
2023-06-17T20:32:37.720Z,24.59
2023-06-17T20:34:42.538Z,24.58
2023-06-17T20:36:45.989Z,24.53
2023-06-17T20:38:49.005Z,24.45
2023-06-17T20:40:52.533Z,24.37
2023-06-17T20:42:55.520Z,24.07
2023-06-17T20:44:58.703Z,24.01
2023-06-17T20:47:02.140Z,24.11
2023-06-17T20:49:05.182Z,24.10
2023-06-17T20:51:11.466Z,23.96
2023-06-17T20:53:14.610Z,23.98
2023-06-17T20:55:17.802Z,23.98
2023-06-17T20:57:20.819Z,23.93
2023-06-17T20:59:25.675Z,23.89
2023-06-17T21:01:28.984Z,23.82
2023-06-17T21:03:32.233Z,23.87
2023-06-17T21:05:35.468Z,23.88
2023-06-17T21:07:39.887Z,23.66
2023-06-17T21:09:43.932Z,23.72
2023-06-17T21:11:47.239Z,23.45
2023-06-17T21:13:50.592Z,23.57
2023-06-17T21:15:53.654Z,23.60
2023-06-17T21:17:57.471Z,23.61
2023-06-17T21:20:00.633Z,23.62
2023-06-17T21:22:04.058Z,23.58
2023-06-17T21:24:08.974Z,23.56
2023-06-17T21:26:12.111Z,23.42
2023-06-17T21:28:15.288Z,23.26
2023-06-17T21:30:18.438Z,23.27
2023-06-17T21:32:22.101Z,23.22
2023-06-17T21:34:25.332Z,23.06
2023-06-17T21:36:28.619Z,22.70
2023-06-17T21:38:32.159Z,22.73
2023-06-17T21:40:36.490Z,22.61
2023-06-17T21:42:39.973Z,22.83
2023-06-17T21:44:42.908Z,22.88
2023-06-17T21:46:45.903Z,22.80
2023-06-17T21:48:48.953Z,22.79
2023-06-17T21:50:52.255Z,22.73
2023-06-17T21:52:56.950Z,22.67
2023-06-17T21:54:59.902Z,22.65
2023-06-17T21:57:04.393Z,22.61
2023-06-17T21:59:08.262Z,22.60
2023-06-17T22:01:11.499Z,22.53
2023-06-17T22:03:15.211Z,22.55
2023-06-17T22:05:19.182Z,22.47
2023-06-17T22:07:22.175Z,22.33
2023-06-17T22:09:25.434Z,22.14
2023-06-17T22:11:28.401Z,22.20
2023-06-17T22:13:32.796Z,22.24
2023-06-17T22:15:35.827Z,22.27
2023-06-17T22:17:38.973Z,22.28
2023-06-17T22:19:42.006Z,22.23
2023-06-17T22:21:45.439Z,22.22
2023-06-17T22:23:48.395Z,22.11
2023-06-17T22:25:51.264Z,22.00
2023-06-17T22:27:56.572Z,21.95
2023-06-17T22:30:01.206Z,21.92
2023-06-17T22:32:04.385Z,21.82
2023-06-17T22:34:07.402Z,21.96
2023-06-17T22:36:10.339Z,22.01
2023-06-17T22:38:18.940Z,21.95
2023-06-17T22:40:22.749Z,21.98
2023-06-17T22:42:28.401Z,21.61
2023-06-17T22:44:31.578Z,21.81
2023-06-17T22:46:36.341Z,21.67
2023-06-17T22:48:39.442Z,21.76
2023-06-17T22:50:42.649Z,21.64
2023-06-17T22:52:45.581Z,21.48
2023-06-17T22:54:50.100Z,21.46
2023-06-17T22:56:53.293Z,21.36
2023-06-17T22:58:57.998Z,21.18
2023-06-17T23:01:01.570Z,21.20
2023-06-17T23:03:06.418Z,21.02
2023-06-17T23:05:10.996Z,21.31
2023-06-17T23:07:14.229Z,21.24
2023-06-17T23:09:17.897Z,21.30
2023-06-17T23:11:21.173Z,21.35
2023-06-17T23:13:24.202Z,21.22
2023-06-17T23:15:27.104Z,21.12
2023-06-17T23:17:30.465Z,21.03
2023-06-17T23:19:35.200Z,20.98
2023-06-17T23:21:41.078Z,20.71
2023-06-17T23:23:45.065Z,20.84
2023-06-17T23:25:50.766Z,20.96
2023-06-17T23:27:54.488Z,21.08
2023-06-17T23:29:59.879Z,21.13
2023-06-17T23:32:05.197Z,21.10
2023-06-17T23:34:08.488Z,21.09
2023-06-17T23:36:12.793Z,21.12
2023-06-17T23:38:15.967Z,20.96
2023-06-17T23:40:19.656Z,20.99
2023-06-17T23:42:22.785Z,20.41
2023-06-17T23:44:26.148Z,20.43
2023-06-17T23:46:32.445Z,20.69
2023-06-17T23:48:37.789Z,20.71
2023-06-17T23:50:41.643Z,20.27
2023-06-17T23:52:46.382Z,20.62
2023-06-17T23:54:52.331Z,20.71
2023-06-17T23:56:55.386Z,20.66
2023-06-17T23:58:58.262Z,20.67
